Airfield :
LOGIN :

Register | Disclaimer

   EN    FR    IT 

 










Legend :    VFR   Marginal VFR   IFR   Intensive IFR   Very Intensive IFR
Visi :
Ceiling :
>= 8 km
>= 3000ft
5 to 8 km
1000 to 3000 ft
1500m to 5 km
500 to 1000 ft
800 to 1500m
200 to 500 ft
< 800m
< 200 ft
Symbols :   Thunderstorms  Fog  Heavy snow  Heavy precipitations  Wind > 20 kt
SIGMETs :     Misc.  Thunderstorms  Icing  Turbulence  Mountain Waves  Volcanic Ashes






- Airport Elevation : 141 ft
- IATA code : SKS


EKSP - Srydstrup Vojens

CURRENT METAR :
  • 190750Z 29007KT CAVOK 02/00 Q1030 RMK SKC

EXPIRED METARs :
  • 190720Z 29007KT CAVOK 03/01 Q1030 RMK SKC
  • 190650Z 30008KT CAVOK 03/01 Q1029 RMK SKC
  • 190620Z 30008KT CAVOK 03/02 Q1028
  • 190550Z 28006KT CAVOK 02/01 Q1027 RMK SKC

TAF TAF EKSP
Valid from the 19 at 06:00 until the 20 at 06:00 UTC


190525Z 1906/2006 29008KT 9999 FEW025
TEMPO 1919/2006 2500 BR



MET'MAP, your aeronautical weather chart ! - Copyright ORBIFLY December 2007 - Disclaimer

ORBIFLY MET'MAP TEAM :

Programming & Development : Alexandra Zaïnal
Concept & original design : Baudouin d'Aumeries
Assistance for programming : Marc-Olivier Méhu
Technical & hardware support : Manuel Goepfert

Contact : metmap@orbifly.com




SOURCES & CREDITS :

   NOAA